createdAt,value
2022-08-23T00:00:20.132Z,67.42
2022-08-23T00:03:49.867Z,67.60
2022-08-23T00:07:18.130Z,67.73
2022-08-23T00:10:45.966Z,67.74
2022-08-23T00:14:15.468Z,67.86
2022-08-23T00:17:44.121Z,67.97
2022-08-23T00:21:11.375Z,67.99
2022-08-23T00:24:40.988Z,68.17
2022-08-23T00:28:14.609Z,68.09
2022-08-23T00:31:42.164Z,68.14
2022-08-23T00:35:14.328Z,68.16
2022-08-23T00:38:53.597Z,68.23
2022-08-23T00:42:49.830Z,68.22
2022-08-23T00:46:42.164Z,68.27
2022-08-23T00:50:37.941Z,68.19
2022-08-23T00:54:17.128Z,68.22
2022-08-23T00:57:44.114Z,68.33
2022-08-23T01:01:15.453Z,68.46
2022-08-23T01:04:50.787Z,68.31
2022-08-23T01:08:17.859Z,68.49
2022-08-23T01:11:51.367Z,68.64
2022-08-23T01:15:24.161Z,68.68
2022-08-23T01:18:51.979Z,68.73
2022-08-23T01:22:22.494Z,68.82
2022-08-23T01:25:50.349Z,68.86
2022-08-23T01:29:17.641Z,68.87
2022-08-23T01:32:52.073Z,68.82
2022-08-23T01:36:20.197Z,68.90
2022-08-23T01:39:49.672Z,68.94
2022-08-23T01:43:20.097Z,69.01
2022-08-23T01:46:49.588Z,69.00
2022-08-23T01:50:22.572Z,68.96
2022-08-23T01:53:51.009Z,68.93
2022-08-23T01:57:18.832Z,69.02
2022-08-23T02:00:46.666Z,69.08
2022-08-23T02:04:15.028Z,68.98
2022-08-23T02:07:42.531Z,68.98
2022-08-23T02:11:13.992Z,69.17
2022-08-23T02:14:42.521Z,69.22
2022-08-23T02:18:20.896Z,69.31
2022-08-23T02:22:03.967Z,69.40
2022-08-23T02:25:34.454Z,69.54
2022-08-23T02:29:01.941Z,69.47
2022-08-23T02:32:32.105Z,69.64
2022-08-23T02:35:59.832Z,69.66
2022-08-23T02:39:27.501Z,69.67
2022-08-23T02:42:54.873Z,69.77
2022-08-23T02:46:23.359Z,69.82
2022-08-23T02:49:52.048Z,69.88
2022-08-23T02:53:19.721Z,69.89
2022-08-23T02:56:47.656Z,69.98
2022-08-23T03:00:18.452Z,69.98
2022-08-23T03:03:46.116Z,70.05
2022-08-23T03:07:14.112Z,70.00
2022-08-23T03:10:45.798Z,70.14
2022-08-23T03:14:13.245Z,70.14
2022-08-23T03:17:40.861Z,70.17
2022-08-23T03:21:12.548Z,70.24
2022-08-23T03:24:39.293Z,70.19
2022-08-23T03:28:09.362Z,70.29
2022-08-23T03:31:38.844Z,70.23
2022-08-23T03:35:15.077Z,70.36
2022-08-23T03:38:45.541Z,70.43
2022-08-23T03:42:12.632Z,70.48
2022-08-23T03:45:44.302Z,70.45
2022-08-23T03:49:14.906Z,70.45
2022-08-23T03:52:50.769Z,70.66
2022-08-23T03:56:27.566Z,70.72
2022-08-23T03:59:54.918Z,70.66
2022-08-23T04:03:21.953Z,70.75
2022-08-23T04:07:03.381Z,70.76
2022-08-23T04:10:31.599Z,70.88
2022-08-23T04:13:59.370Z,70.90
2022-08-23T04:17:26.753Z,70.84
2022-08-23T04:20:54.649Z,70.89
2022-08-23T04:24:24.812Z,70.99
2022-08-23T04:27:51.966Z,71.04
2022-08-23T04:31:23.745Z,71.01
2022-08-23T04:34:51.976Z,71.09
2022-08-23T04:38:25.206Z,71.10
2022-08-23T04:42:16.119Z,71.12
2022-08-23T04:45:45.627Z,71.19
2022-08-23T04:49:24.520Z,71.24
2022-08-23T04:52:52.642Z,71.22
2022-08-23T04:56:20.578Z,71.31
2022-08-23T04:59:47.651Z,71.27
2022-08-23T05:03:16.271Z,71.32
2022-08-23T05:06:46.029Z,71.39
2022-08-23T05:10:17.217Z,71.40
2022-08-23T05:13:48.355Z,71.39
2022-08-23T05:17:16.120Z,71.29
2022-08-23T05:20:44.049Z,71.40
2022-08-23T05:24:13.686Z,71.51
2022-08-23T05:27:43.443Z,71.61
2022-08-23T05:31:14.797Z,71.58
2022-08-23T05:34:47.142Z,71.59
2022-08-23T05:38:20.567Z,71.67
2022-08-23T05:41:48.753Z,71.64
2022-08-23T05:45:20.687Z,71.70
2022-08-23T05:48:52.438Z,71.76
2022-08-23T05:52:21.387Z,71.74
2022-08-23T05:55:48.697Z,71.78
2022-08-23T05:59:20.620Z,71.85
2022-08-23T06:02:47.800Z,71.85
2022-08-23T06:06:18.937Z,71.94
2022-08-23T06:09:47.123Z,71.97
2022-08-23T06:13:19.312Z,71.96
2022-08-23T06:16:51.592Z,71.92
2022-08-23T06:20:23.455Z,71.86
2022-08-23T06:24:17.133Z,71.86
2022-08-23T06:27:55.351Z,72.05
2022-08-23T06:31:44.465Z,72.06
2022-08-23T06:35:37.917Z,72.05
2022-08-23T06:39:13.156Z,72.04
2022-08-23T06:43:07.013Z,71.98
2022-08-23T06:47:00.318Z,72.02
2022-08-23T06:50:32.564Z,71.88
2022-08-23T06:54:21.880Z,71.71
2022-08-23T06:57:49.302Z,71.61
2022-08-23T07:01:47.197Z,71.57
2022-08-23T07:05:20.297Z,71.76
2022-08-23T07:09:08.613Z,71.86
2022-08-23T07:12:39.876Z,71.88
2022-08-23T07:16:07.911Z,71.70
2022-08-23T07:19:39.446Z,71.62
2022-08-23T07:23:09.334Z,71.58
2022-08-23T07:26:40.242Z,71.53
2022-08-23T07:30:10.339Z,71.58
2022-08-23T07:33:41.058Z,71.36
2022-08-23T07:37:15.667Z,71.28
2022-08-23T07:40:53.880Z,71.45
2022-08-23T07:44:27.170Z,71.31
2022-08-23T07:47:58.922Z,71.28
2022-08-23T07:51:28.483Z,71.17
2022-08-23T07:54:56.767Z,71.26
2022-08-23T07:58:59.338Z,71.35
2022-08-23T08:02:55.372Z,71.32
2022-08-23T08:06:34.254Z,71.27
2022-08-23T08:10:03.752Z,71.18
2022-08-23T08:13:32.822Z,71.06
2022-08-23T08:17:03.866Z,71.17
2022-08-23T08:20:53.370Z,70.87
2022-08-23T08:24:43.206Z,70.76
2022-08-23T08:28:15.902Z,70.74
2022-08-23T08:31:50.375Z,70.68
2022-08-23T08:35:22.690Z,70.43
2022-08-23T08:38:55.474Z,70.46
2022-08-23T08:42:55.886Z,70.50
2022-08-23T08:46:31.033Z,70.79
2022-08-23T08:50:04.738Z,70.63
2022-08-23T08:53:40.518Z,70.56
2022-08-23T08:57:15.237Z,70.52
2022-08-23T09:00:47.249Z,70.51
2022-08-23T09:04:17.629Z,70.45
2022-08-23T09:08:06.420Z,70.49
2022-08-23T09:11:54.444Z,70.46
2022-08-23T09:15:35.187Z,70.33
2022-08-23T09:19:03.753Z,70.10
2022-08-23T09:22:38.162Z,70.06
2022-08-23T09:26:24.671Z,70.04
2022-08-23T09:29:59.983Z,70.01
2022-08-23T09:33:43.246Z,70.13
2022-08-23T09:37:30.560Z,69.93
2022-08-23T09:41:02.306Z,69.87
2022-08-23T09:44:42.314Z,70.01
2022-08-23T09:48:17.330Z,69.87
2022-08-23T09:51:48.235Z,69.67
2022-08-23T09:55:35.488Z,69.47
2022-08-23T09:59:49.128Z,69.40
2022-08-23T10:03:26.325Z,69.11
2022-08-23T10:07:00.985Z,69.05
2022-08-23T10:10:33.955Z,69.04
2022-08-23T10:14:03.468Z,69.23
2022-08-23T10:17:43.052Z,68.69
2022-08-23T10:21:23.798Z,68.31
2022-08-23T10:25:05.565Z,67.99
2022-08-23T10:29:03.867Z,67.59
2022-08-23T10:32:48.417Z,67.33
2022-08-23T10:36:24.702Z,67.21
2022-08-23T10:40:04.150Z,67.35
2022-08-23T10:43:40.832Z,67.12
2022-08-23T10:47:31.347Z,66.74
2022-08-23T10:51:04.002Z,66.64
2022-08-23T10:54:46.285Z,66.34
2022-08-23T10:58:24.593Z,65.55
2022-08-23T11:02:01.515Z,65.40
2022-08-23T11:05:32.025Z,65.12
2022-08-23T11:09:08.442Z,65.32
2022-08-23T11:12:39.098Z,65.54
2022-08-23T11:16:15.235Z,65.25
2022-08-23T11:19:55.265Z,65.17
2022-08-23T11:23:45.155Z,65.10
2022-08-23T11:27:26.575Z,64.75
2022-08-23T11:31:00.692Z,64.62
2022-08-23T11:34:35.158Z,64.54
2022-08-23T11:38:08.630Z,64.60
2022-08-23T11:42:05.941Z,64.75
2022-08-23T11:45:47.005Z,64.66
2022-08-23T11:49:34.458Z,64.70
2022-08-23T11:53:27.866Z,64.81
2022-08-23T11:57:09.624Z,64.75
2022-08-23T12:01:06.506Z,64.73
2022-08-23T12:04:40.281Z,64.47
2022-08-23T12:08:31.241Z,64.38
2022-08-23T12:12:15.801Z,64.26
2022-08-23T12:16:29.202Z,63.99
2022-08-23T12:20:00.339Z,63.91
2022-08-23T12:23:27.459Z,63.76
2022-08-23T12:27:05.013Z,63.71
2022-08-23T12:30:42.839Z,63.70
2022-08-23T12:34:23.566Z,63.29
2022-08-23T12:37:58.032Z,63.40
2022-08-23T12:41:28.002Z,63.39
2022-08-23T12:45:05.857Z,63.67
2022-08-23T12:48:48.104Z,63.56
2022-08-23T12:52:16.222Z,63.36
2022-08-23T12:55:47.540Z,63.45
2022-08-23T12:59:38.015Z,63.10
2022-08-23T13:03:08.674Z,62.83
2022-08-23T13:06:42.220Z,62.41
2022-08-23T13:10:12.517Z,62.49
2022-08-23T13:13:42.557Z,62.48
2022-08-23T13:17:22.675Z,62.38
2022-08-23T13:20:50.117Z,62.26
2022-08-23T13:24:39.111Z,62.22
2022-08-23T13:28:08.946Z,62.28
2022-08-23T13:31:53.169Z,61.99
2022-08-23T13:35:33.954Z,62.05
2022-08-23T13:39:08.300Z,62.06
2022-08-23T13:42:39.852Z,62.30
2022-08-23T13:46:21.783Z,62.39
2022-08-23T13:49:51.120Z,62.55
2022-08-23T13:53:18.962Z,62.89
2022-08-23T13:56:53.407Z,62.66
2022-08-23T14:00:22.932Z,62.76
2022-08-23T14:03:50.528Z,62.57
2022-08-23T14:07:18.070Z,62.74
2022-08-23T14:10:47.124Z,62.68
2022-08-23T14:14:14.267Z,62.91
2022-08-23T14:17:45.411Z,62.97
2022-08-23T14:21:12.578Z,62.53
2022-08-23T14:24:39.780Z,62.36
2022-08-23T14:28:07.144Z,62.48
2022-08-23T14:31:34.737Z,62.50
2022-08-23T14:35:02.090Z,62.72
2022-08-23T14:38:30.654Z,62.63
2022-08-23T14:41:57.626Z,62.65
2022-08-23T14:45:26.660Z,62.74
2022-08-23T14:48:55.953Z,62.70
2022-08-23T14:52:23.163Z,62.63
2022-08-23T14:56:12.236Z,62.77
2022-08-23T14:59:41.892Z,62.89
2022-08-23T15:03:12.450Z,62.95
2022-08-23T15:07:00.359Z,63.03
2022-08-23T15:10:50.557Z,63.07
2022-08-23T15:14:20.695Z,63.17
2022-08-23T15:17:54.146Z,63.18
2022-08-23T15:21:22.566Z,63.30
2022-08-23T15:24:50.442Z,63.38
2022-08-23T15:28:20.173Z,63.45
2022-08-23T15:31:47.663Z,63.44
2022-08-23T15:35:16.556Z,63.46
2022-08-23T15:38:45.352Z,63.49
2022-08-23T15:42:18.071Z,63.45
2022-08-23T15:45:48.532Z,63.44
2022-08-23T15:49:19.596Z,63.58
2022-08-23T15:52:46.885Z,63.65
2022-08-23T15:56:18.373Z,63.74
2022-08-23T15:59:45.935Z,63.67
2022-08-23T16:03:19.903Z,63.81
2022-08-23T16:06:55.638Z,63.93
2022-08-23T16:10:23.291Z,63.81
2022-08-23T16:13:55.225Z,63.78
2022-08-23T16:17:23.833Z,63.79
2022-08-23T16:20:54.304Z,63.93
2022-08-23T16:24:24.490Z,63.84
2022-08-23T16:27:52.203Z,63.83
2022-08-23T16:31:20.523Z,63.97
2022-08-23T16:34:49.713Z,63.97
2022-08-23T16:38:18.831Z,63.99
2022-08-23T16:41:46.438Z,64.13
2022-08-23T16:45:14.825Z,64.21
2022-08-23T16:48:42.056Z,64.32
2022-08-23T16:52:10.849Z,64.39
2022-08-23T16:55:39.398Z,64.51
2022-08-23T16:59:11.715Z,64.53
2022-08-23T17:02:41.211Z,64.53
2022-08-23T17:06:08.975Z,64.41
2022-08-23T17:09:36.295Z,64.36
2022-08-23T17:13:05.335Z,64.24
2022-08-23T17:16:32.867Z,64.14
2022-08-23T17:19:59.957Z,64.17
2022-08-23T17:23:27.722Z,64.31
2022-08-23T17:26:57.721Z,64.26
2022-08-23T17:30:26.988Z,64.44
2022-08-23T17:33:58.041Z,64.44
2022-08-23T17:37:25.717Z,64.65
2022-08-23T17:40:53.797Z,64.73
2022-08-23T17:44:21.894Z,64.76
2022-08-23T17:47:49.328Z,64.97
2022-08-23T17:51:16.133Z,65.13
2022-08-23T17:54:44.286Z,65.28
2022-08-23T17:58:13.740Z,65.46
2022-08-23T18:01:41.106Z,65.44
2022-08-23T18:05:10.883Z,65.50
2022-08-23T18:08:38.178Z,65.49
2022-08-23T18:12:06.908Z,65.70
2022-08-23T18:15:35.559Z,65.76
2022-08-23T18:19:10.814Z,65.81
2022-08-23T18:22:40.022Z,65.85
2022-08-23T18:26:33.872Z,65.83
2022-08-23T18:30:01.602Z,66.03
2022-08-23T18:33:32.343Z,66.14
2022-08-23T18:37:22.037Z,66.29
2022-08-23T18:40:52.798Z,66.28
2022-08-23T18:44:21.346Z,66.55
2022-08-23T18:47:50.501Z,66.65
2022-08-23T18:51:18.214Z,66.75
2022-08-23T18:54:47.344Z,66.95
2022-08-23T18:58:16.280Z,66.89
2022-08-23T19:01:45.643Z,67.00
2022-08-23T19:05:13.215Z,67.04
2022-08-23T19:08:40.748Z,67.22
2022-08-23T19:12:10.221Z,67.15
2022-08-23T19:15:40.556Z,67.21
2022-08-23T19:19:10.936Z,67.46
2022-08-23T19:22:39.178Z,67.43
2022-08-23T19:26:09.917Z,67.55
2022-08-23T19:29:41.046Z,67.62
2022-08-23T19:33:09.629Z,67.65
2022-08-23T19:36:48.291Z,67.67
2022-08-23T19:40:19.173Z,67.65
2022-08-23T19:43:55.989Z,67.72
2022-08-23T19:47:28.743Z,67.80
2022-08-23T19:51:00.256Z,67.81
2022-08-23T19:54:29.129Z,67.91
2022-08-23T19:58:00.113Z,68.13
2022-08-23T20:01:27.028Z,68.13
2022-08-23T20:04:55.058Z,68.25
2022-08-23T20:08:25.262Z,68.34
2022-08-23T20:11:55.356Z,68.43
2022-08-23T20:15:23.198Z,68.46
2022-08-23T20:18:53.096Z,68.40
2022-08-23T20:22:38.484Z,68.49
2022-08-23T20:26:06.590Z,68.55
2022-08-23T20:29:35.594Z,68.70
2022-08-23T20:33:05.272Z,68.81
2022-08-23T20:36:35.587Z,68.96
2022-08-23T20:40:07.839Z,68.99
2022-08-23T20:43:39.866Z,69.12
2022-08-23T20:47:07.889Z,69.14
2022-08-23T20:50:38.789Z,68.97
2022-08-23T20:54:12.324Z,69.05
2022-08-23T20:57:38.951Z,69.08
2022-08-23T21:01:10.179Z,69.06
2022-08-23T21:04:40.291Z,69.00
2022-08-23T21:08:07.334Z,69.05
2022-08-23T21:11:40.496Z,69.04
2022-08-23T21:15:10.887Z,69.15
2022-08-23T21:18:39.177Z,69.32
2022-08-23T21:22:06.881Z,69.45
2022-08-23T21:25:35.012Z,69.49
2022-08-23T21:29:03.036Z,69.59
2022-08-23T21:32:32.637Z,69.72
2022-08-23T21:36:00.498Z,69.90
2022-08-23T21:39:28.991Z,70.03
2022-08-23T21:42:55.980Z,70.05
2022-08-23T21:46:25.851Z,70.14
2022-08-23T21:49:53.903Z,70.17
2022-08-23T21:53:21.488Z,70.16
2022-08-23T21:56:49.040Z,70.16
2022-08-23T22:00:18.353Z,70.18
2022-08-23T22:03:46.046Z,70.07
2022-08-23T22:07:14.571Z,70.15
2022-08-23T22:10:48.168Z,70.25
2022-08-23T22:14:31.487Z,70.33
2022-08-23T22:17:59.875Z,70.29
2022-08-23T22:21:27.727Z,70.43
2022-08-23T22:24:58.170Z,70.48
2022-08-23T22:28:25.780Z,70.49
2022-08-23T22:31:56.666Z,70.52
2022-08-23T22:35:23.649Z,70.46
2022-08-23T22:38:52.125Z,70.53
2022-08-23T22:42:19.652Z,70.53
2022-08-23T22:45:55.848Z,70.64
2022-08-23T22:49:23.439Z,70.64
2022-08-23T22:52:54.173Z,70.60
2022-08-23T22:56:24.992Z,70.63
2022-08-23T22:59:55.168Z,70.70
2022-08-23T23:03:22.618Z,70.75
2022-08-23T23:06:50.906Z,70.60
2022-08-23T23:10:17.870Z,70.61
2022-08-23T23:13:45.420Z,70.56
2022-08-23T23:17:12.569Z,70.58
2022-08-23T23:20:40.473Z,70.71
2022-08-23T23:24:08.998Z,70.71
2022-08-23T23:27:35.950Z,70.82
2022-08-23T23:31:04.776Z,70.98
2022-08-23T23:34:32.148Z,71.01
2022-08-23T23:37:59.970Z,71.06
2022-08-23T23:41:27.715Z,70.99
2022-08-23T23:44:55.353Z,71.13
2022-08-23T23:48:22.175Z,71.19
2022-08-23T23:51:48.972Z,71.27
2022-08-23T23:55:18.771Z,71.35
2022-08-23T23:58:47.779Z,71.35
